createdAt,value
2019-05-30T00:00:36.177Z,11.30
2019-05-30T00:03:06.855Z,11.30
2019-05-30T00:05:36.800Z,11.30
2019-05-30T00:08:06.640Z,11.30
2019-05-30T00:10:36.339Z,11.30
2019-05-30T00:13:07.242Z,11.30
2019-05-30T00:15:38.265Z,11.30
2019-05-30T00:18:08.190Z,11.30
2019-05-30T00:20:38.052Z,11.30
2019-05-30T00:23:09.173Z,11.30
2019-05-30T00:25:39.102Z,11.20
2019-05-30T00:28:08.994Z,11.20
2019-05-30T00:30:39.794Z,11.20
2019-05-30T00:33:09.736Z,11.20
2019-05-30T00:35:39.587Z,11.20
2019-05-30T00:38:09.444Z,11.20
2019-05-30T00:40:39.216Z,11.20
2019-05-30T00:43:09.020Z,11.30
2019-05-30T00:45:38.817Z,11.20
2019-05-30T00:48:08.646Z,11.20
2019-05-30T00:50:38.410Z,11.30
2019-05-30T00:53:08.187Z,11.30
2019-05-30T00:55:38.032Z,11.30
2019-05-30T00:58:07.999Z,11.30
2019-05-30T01:00:43.333Z,11.30
2019-05-30T01:03:09.293Z,11.30
2019-05-30T01:05:39.198Z,11.30
2019-05-30T01:08:08.972Z,11.30
2019-05-30T01:10:38.734Z,11.30
2019-05-30T01:13:08.547Z,11.40
2019-05-30T01:15:38.334Z,11.40
2019-05-30T01:18:08.153Z,11.40
2019-05-30T01:20:37.950Z,11.30
2019-05-30T01:23:07.854Z,11.30
2019-05-30T01:25:37.577Z,11.30
2019-05-30T01:28:07.863Z,11.30
2019-05-30T01:30:37.899Z,11.30
2019-05-30T01:33:08.126Z,11.30
2019-05-30T01:35:37.949Z,11.30
2019-05-30T01:38:08.109Z,11.20
2019-05-30T01:40:38.197Z,11.20
2019-05-30T01:43:08.262Z,11.20
2019-05-30T01:45:38.144Z,11.10
2019-05-30T01:48:08.645Z,11.10
2019-05-30T01:50:39.830Z,11.10
2019-05-30T01:53:09.628Z,11.10
2019-05-30T01:55:39.425Z,11.10
2019-05-30T01:58:09.390Z,11.10
2019-05-30T02:00:40.447Z,11.10
2019-05-30T02:03:10.382Z,11.20
2019-05-30T02:05:40.424Z,11.20
2019-05-30T02:08:10.355Z,11.20
2019-05-30T02:10:41.618Z,11.20
2019-05-30T02:13:11.393Z,11.30
2019-05-30T02:15:41.125Z,11.30
2019-05-30T02:18:10.988Z,11.30
2019-05-30T02:20:40.766Z,11.30
2019-05-30T02:23:11.510Z,11.30
2019-05-30T02:25:42.310Z,11.30
2019-05-30T02:28:13.117Z,11.30
2019-05-30T02:30:42.869Z,11.30
2019-05-30T02:33:13.079Z,11.30
2019-05-30T02:35:42.903Z,11.30
2019-05-30T02:38:13.898Z,11.30
2019-05-30T02:40:43.846Z,11.30
2019-05-30T02:43:13.619Z,11.30
2019-05-30T02:45:43.491Z,11.30
2019-05-30T02:48:13.428Z,11.30
2019-05-30T02:50:43.633Z,11.30
2019-05-30T02:53:13.543Z,11.30
2019-05-30T02:55:44.658Z,11.30
2019-05-30T02:58:14.628Z,11.30
2019-05-30T03:00:44.561Z,11.30
2019-05-30T03:03:14.978Z,11.30
2019-05-30T03:05:45.017Z,11.20
2019-05-30T03:08:14.880Z,11.20
2019-05-30T03:10:44.891Z,11.20
2019-05-30T03:13:15.768Z,11.10
2019-05-30T03:15:45.542Z,11.10
2019-05-30T03:18:15.511Z,11.00
2019-05-30T03:20:45.499Z,10.90
2019-05-30T03:23:15.452Z,10.80
2019-05-30T03:25:45.475Z,10.70
2019-05-30T03:28:15.887Z,10.70
2019-05-30T03:30:46.117Z,10.60
2019-05-30T03:33:36.242Z,10.50
2019-05-30T03:35:47.583Z,10.50
2019-05-30T03:38:17.381Z,10.40
2019-05-30T03:40:47.177Z,10.40
2019-05-30T03:43:16.956Z,10.40
2019-05-30T03:45:47.154Z,10.30
2019-05-30T03:48:19.809Z,10.30
2019-05-30T03:50:52.953Z,10.20
2019-05-30T03:53:23.388Z,10.20
2019-05-30T03:55:56.178Z,10.20
2019-05-30T03:58:34.617Z,10.20
2019-05-30T04:01:12.441Z,10.20
2019-05-30T04:04:06.497Z,10.20
2019-05-30T04:06:42.521Z,10.20
2019-05-30T04:09:21.984Z,10.20
2019-05-30T04:12:09.633Z,10.20
2019-05-30T04:14:42.383Z,10.20
2019-05-30T04:17:13.595Z,10.20
2019-05-30T04:19:43.721Z,10.20
2019-05-30T04:22:13.572Z,10.30
2019-05-30T04:24:43.872Z,10.30
2019-05-30T04:27:13.896Z,10.30
2019-05-30T04:29:43.754Z,10.30
2019-05-30T04:32:14.431Z,10.30
2019-05-30T04:34:44.372Z,10.30
2019-05-30T04:37:14.814Z,10.30
2019-05-30T04:39:44.829Z,10.30
2019-05-30T04:42:16.135Z,10.30
2019-05-30T04:44:46.935Z,10.30
2019-05-30T04:47:18.296Z,10.30
2019-05-30T04:49:48.340Z,10.30
2019-05-30T04:52:21.099Z,10.30
2019-05-30T04:54:50.572Z,10.30
2019-05-30T04:57:26.854Z,10.30
2019-05-30T04:59:52.750Z,10.30
2019-05-30T05:02:23.246Z,10.30
2019-05-30T05:04:53.360Z,10.30
2019-05-30T05:07:23.223Z,10.30
2019-05-30T05:09:53.021Z,10.30
2019-05-30T05:12:23.126Z,10.30
2019-05-30T05:14:52.844Z,10.40
2019-05-30T05:17:23.104Z,10.40
2019-05-30T05:19:53.158Z,10.40
2019-05-30T05:22:23.372Z,10.40
2019-05-30T05:24:53.116Z,10.40
2019-05-30T05:27:23.833Z,10.40
2019-05-30T05:29:53.748Z,10.50
2019-05-30T05:32:24.652Z,10.50
2019-05-30T05:34:54.469Z,10.50
2019-05-30T05:37:25.327Z,10.50
2019-05-30T05:39:55.151Z,10.50
2019-05-30T05:42:28.620Z,10.60
2019-05-30T05:44:57.901Z,10.60
2019-05-30T05:47:28.941Z,10.60
2019-05-30T05:49:58.694Z,10.60
2019-05-30T05:52:29.466Z,10.60
2019-05-30T05:54:59.265Z,10.60
2019-05-30T05:57:29.206Z,10.60
2019-05-30T05:59:59.142Z,10.60
2019-05-30T06:02:28.862Z,10.50
2019-05-30T06:05:00.092Z,10.50
2019-05-30T06:07:29.841Z,10.50
2019-05-30T06:09:59.623Z,10.60
2019-05-30T06:12:29.558Z,10.60
2019-05-30T06:14:59.329Z,10.60
2019-05-30T06:17:29.381Z,10.60
2019-05-30T06:19:59.264Z,10.60
2019-05-30T06:22:28.914Z,10.60
2019-05-30T06:24:59.009Z,10.60
2019-05-30T06:27:28.805Z,10.60
2019-05-30T06:29:58.543Z,10.60
2019-05-30T06:32:28.879Z,10.60
2019-05-30T06:34:59.987Z,10.60
2019-05-30T06:37:29.765Z,10.60
2019-05-30T06:39:59.626Z,10.70
2019-05-30T06:42:30.290Z,10.70
2019-05-30T06:45:00.234Z,10.60
2019-05-30T06:47:30.511Z,10.70
2019-05-30T06:50:00.433Z,10.70
2019-05-30T06:52:32.080Z,10.70
2019-05-30T06:55:02.037Z,10.70
2019-05-30T06:57:31.771Z,10.70
2019-05-30T07:00:01.651Z,10.70
2019-05-30T07:02:32.463Z,10.80
2019-05-30T07:05:03.161Z,10.70
2019-05-30T07:07:33.847Z,10.70
2019-05-30T07:10:05.492Z,10.70
2019-05-30T07:12:35.402Z,10.70
2019-05-30T07:15:08.234Z,10.70
2019-05-30T07:17:38.079Z,10.60
2019-05-30T07:20:09.147Z,10.60
2019-05-30T07:22:39.054Z,10.70
2019-05-30T07:25:09.390Z,10.70
2019-05-30T07:27:39.274Z,10.70
2019-05-30T07:30:09.310Z,10.70
2019-05-30T07:32:39.053Z,10.70
2019-05-30T07:35:10.049Z,10.70
2019-05-30T07:37:39.958Z,10.70
2019-05-30T07:40:11.625Z,10.70
2019-05-30T07:42:41.433Z,10.70
2019-05-30T07:45:12.401Z,10.70
2019-05-30T07:47:42.331Z,10.70
2019-05-30T07:50:12.447Z,10.70
2019-05-30T07:52:42.229Z,10.70
2019-05-30T07:55:12.619Z,10.70
2019-05-30T07:57:42.542Z,10.70
2019-05-30T08:00:14.018Z,10.70
2019-05-30T08:02:44.022Z,10.70
2019-05-30T08:05:24.130Z,10.70
2019-05-30T08:07:47.091Z,10.70
2019-05-30T08:10:17.091Z,10.70
2019-05-30T08:12:46.851Z,10.70
2019-05-30T08:15:16.644Z,10.70
2019-05-30T08:17:46.432Z,10.70
2019-05-30T08:20:16.824Z,10.70
2019-05-30T08:22:46.694Z,10.60
2019-05-30T08:25:16.840Z,10.60
2019-05-30T08:27:46.646Z,10.50
2019-05-30T08:30:19.012Z,10.40
2019-05-30T08:32:48.794Z,10.40
2019-05-30T08:35:18.845Z,10.50
2019-05-30T08:37:48.676Z,10.60
2019-05-30T08:40:20.131Z,10.60
2019-05-30T08:42:49.858Z,10.60
2019-05-30T08:45:19.962Z,10.60
2019-05-30T08:47:49.800Z,10.70
2019-05-30T08:50:19.668Z,10.70
2019-05-30T08:52:49.506Z,10.80
2019-05-30T08:55:19.257Z,10.80
2019-05-30T08:57:51.339Z,10.90
2019-05-30T09:00:22.182Z,11.00
2019-05-30T09:02:51.971Z,11.00
2019-05-30T09:05:21.833Z,11.10
2019-05-30T09:07:51.659Z,11.10
2019-05-30T09:10:21.575Z,11.10
2019-05-30T09:12:51.377Z,11.10
2019-05-30T09:15:22.220Z,11.10
2019-05-30T09:17:52.208Z,11.10
2019-05-30T09:20:22.095Z,11.20
2019-05-30T09:22:51.964Z,11.20
2019-05-30T09:25:23.566Z,11.20
2019-05-30T09:27:53.389Z,11.30
2019-05-30T09:30:24.510Z,11.30
2019-05-30T09:32:54.422Z,11.30
2019-05-30T09:35:24.465Z,11.30
2019-05-30T09:37:54.404Z,11.40
2019-05-30T09:40:24.880Z,11.30
2019-05-30T09:42:54.664Z,11.30
2019-05-30T09:45:25.249Z,11.30
2019-05-30T09:47:54.929Z,11.40
2019-05-30T09:50:24.774Z,11.40
2019-05-30T09:52:54.669Z,11.40
2019-05-30T09:55:24.693Z,11.40
2019-05-30T09:57:54.629Z,11.30
2019-05-30T10:00:24.695Z,11.20
2019-05-30T10:02:54.498Z,11.20
2019-05-30T10:05:25.054Z,11.10
2019-05-30T10:07:54.953Z,11.10
2019-05-30T10:10:25.108Z,11.10
2019-05-30T10:12:54.951Z,11.10
2019-05-30T10:15:24.802Z,11.00
2019-05-30T10:17:54.788Z,11.00
2019-05-30T10:20:24.892Z,11.00
2019-05-30T10:22:57.115Z,11.00
2019-05-30T10:25:27.341Z,11.00
2019-05-30T10:27:57.769Z,11.10
2019-05-30T10:30:27.752Z,11.10
2019-05-30T10:32:57.690Z,11.10
2019-05-30T10:35:29.870Z,11.10
2019-05-30T10:37:58.849Z,11.20
2019-05-30T10:40:31.998Z,11.20
2019-05-30T10:43:00.419Z,11.20
2019-05-30T10:45:31.186Z,11.20
2019-05-30T10:48:01.129Z,11.30
2019-05-30T10:50:31.135Z,11.30
2019-05-30T10:53:01.992Z,11.30
2019-05-30T10:55:32.322Z,11.20
2019-05-30T10:58:02.251Z,11.20
2019-05-30T11:00:58.042Z,11.20
2019-05-30T11:03:28.671Z,11.20
2019-05-30T11:06:07.406Z,11.20
2019-05-30T11:08:39.778Z,11.20
2019-05-30T11:11:11.286Z,11.10
2019-05-30T11:13:41.330Z,11.10
2019-05-30T11:16:11.089Z,11.10
2019-05-30T11:18:40.856Z,11.10
2019-05-30T11:21:10.765Z,11.10
2019-05-30T11:23:40.558Z,11.10
2019-05-30T11:26:10.364Z,11.10
2019-05-30T11:28:40.053Z,11.10
2019-05-30T11:31:09.782Z,11.10
2019-05-30T11:33:39.571Z,11.20
2019-05-30T11:36:09.266Z,11.20
2019-05-30T11:38:39.115Z,11.20
2019-05-30T11:41:08.844Z,11.20
2019-05-30T11:43:38.510Z,11.20
2019-05-30T11:46:08.332Z,11.20
2019-05-30T11:48:38.387Z,11.20
2019-05-30T11:51:08.143Z,11.10
2019-05-30T11:53:38.897Z,11.10
2019-05-30T11:56:08.806Z,11.10
2019-05-30T11:58:39.725Z,11.10
2019-05-30T12:01:09.575Z,11.10
2019-05-30T12:03:39.383Z,11.10
2019-05-30T12:06:09.072Z,11.00
2019-05-30T12:08:39.010Z,10.90
2019-05-30T12:11:08.863Z,10.90
2019-05-30T12:13:38.648Z,10.90
2019-05-30T12:16:08.376Z,10.80
2019-05-30T12:18:38.185Z,10.80
2019-05-30T12:21:08.040Z,10.70
2019-05-30T12:23:37.888Z,10.70
2019-05-30T12:26:07.834Z,10.70
2019-05-30T12:28:37.529Z,10.80
2019-05-30T12:31:07.291Z,10.80
2019-05-30T12:33:37.144Z,10.80
2019-05-30T12:36:08.193Z,10.80
2019-05-30T12:38:37.986Z,10.80
2019-05-30T12:41:07.923Z,10.80
2019-05-30T12:43:37.706Z,10.80
2019-05-30T12:46:07.576Z,10.80
2019-05-30T12:48:37.538Z,10.80
2019-05-30T12:51:07.297Z,10.90
2019-05-30T12:53:37.089Z,10.90
2019-05-30T12:56:06.891Z,10.90
2019-05-30T12:58:37.615Z,10.90
2019-05-30T13:01:07.383Z,10.90
2019-05-30T13:03:37.039Z,10.90
2019-05-30T13:06:07.556Z,10.90
2019-05-30T13:08:37.374Z,10.90
2019-05-30T13:11:07.208Z,10.90
2019-05-30T13:13:36.976Z,10.90
2019-05-30T13:16:08.849Z,10.70
2019-05-30T13:18:38.417Z,10.60
2019-05-30T13:21:08.306Z,10.50
2019-05-30T13:23:39.197Z,10.50
2019-05-30T13:26:09.107Z,10.60
2019-05-30T13:28:39.055Z,10.60
2019-05-30T13:31:08.979Z,10.60
2019-05-30T13:33:38.967Z,10.70
2019-05-30T13:36:09.032Z,10.70
2019-05-30T13:38:38.798Z,10.80
2019-05-30T13:41:08.583Z,10.80
2019-05-30T13:43:38.609Z,10.80
2019-05-30T13:46:08.731Z,10.90
2019-05-30T13:48:38.563Z,10.90
2019-05-30T13:51:09.091Z,11.00
2019-05-30T13:53:39.248Z,11.00
2019-05-30T13:56:09.803Z,11.00
2019-05-30T13:58:39.850Z,11.10
2019-05-30T14:01:13.547Z,11.10
2019-05-30T14:03:41.763Z,11.10
2019-05-30T14:06:11.797Z,11.10
2019-05-30T14:08:42.217Z,11.00
2019-05-30T14:11:12.429Z,11.00
2019-05-30T14:13:42.283Z,11.00
2019-05-30T14:16:12.337Z,10.90
2019-05-30T14:18:42.099Z,10.90
2019-05-30T14:21:11.953Z,10.90
2019-05-30T14:23:41.692Z,10.90
2019-05-30T14:26:11.704Z,10.90
2019-05-30T14:28:41.718Z,10.90
2019-05-30T14:31:13.609Z,11.00
2019-05-30T14:33:43.633Z,10.90
2019-05-30T14:36:14.738Z,10.90
2019-05-30T14:38:57.670Z,10.80
2019-05-30T14:41:16.282Z,10.80
2019-05-30T14:43:46.262Z,10.90
2019-05-30T14:46:16.676Z,10.80
2019-05-30T14:48:46.528Z,10.80
2019-05-30T14:51:17.154Z,10.80
2019-05-30T14:53:47.111Z,10.80
2019-05-30T14:56:17.583Z,10.80
2019-05-30T14:58:47.582Z,10.80
2019-05-30T15:01:17.564Z,10.80
2019-05-30T15:03:47.404Z,10.80
2019-05-30T15:06:18.196Z,10.80
2019-05-30T15:08:47.880Z,10.80
2019-05-30T15:11:17.675Z,10.80
2019-05-30T15:13:47.432Z,10.90
2019-05-30T15:16:17.332Z,10.90
2019-05-30T15:18:47.233Z,10.90
2019-05-30T15:21:17.006Z,10.80
2019-05-30T15:23:47.796Z,10.70
2019-05-30T15:26:17.547Z,10.70
2019-05-30T15:28:47.499Z,10.70
2019-05-30T15:31:17.433Z,10.70
2019-05-30T15:33:47.239Z,10.60
2019-05-30T15:36:18.192Z,10.60
2019-05-30T15:38:48.303Z,10.60
2019-05-30T15:41:18.289Z,10.60
2019-05-30T15:43:48.163Z,10.60
2019-05-30T15:46:18.120Z,10.60
2019-05-30T15:48:48.052Z,10.60
2019-05-30T15:51:18.966Z,10.50
2019-05-30T15:53:49.755Z,10.50
2019-05-30T15:56:19.555Z,10.50
2019-05-30T15:58:50.881Z,10.50
2019-05-30T16:01:20.796Z,10.50
2019-05-30T16:03:50.680Z,10.50
2019-05-30T16:06:20.795Z,10.50
2019-05-30T16:08:50.838Z,10.50
2019-05-30T16:11:21.748Z,10.40
2019-05-30T16:13:51.416Z,10.40
2019-05-30T16:16:37.944Z,10.40
2019-05-30T16:18:52.757Z,10.30
2019-05-30T16:21:22.743Z,10.30
2019-05-30T16:23:52.849Z,10.20
2019-05-30T16:26:22.605Z,10.20
2019-05-30T16:28:52.435Z,10.20
2019-05-30T16:31:22.442Z,10.10
2019-05-30T16:33:52.378Z,10.10
2019-05-30T16:36:22.506Z,10.10
2019-05-30T16:38:52.570Z,10.10
2019-05-30T16:41:22.701Z,10.00
2019-05-30T16:43:52.698Z,10.00
2019-05-30T16:46:22.701Z,10.00
2019-05-30T16:48:52.957Z,10.00
2019-05-30T16:51:24.388Z,10.00
2019-05-30T16:53:54.179Z,10.00
2019-05-30T16:56:25.667Z,10.00
2019-05-30T16:58:55.534Z,10.00
2019-05-30T17:01:26.052Z,10.10
2019-05-30T17:03:55.923Z,10.10
2019-05-30T17:06:26.208Z,10.20
2019-05-30T17:08:56.033Z,10.20
2019-05-30T17:11:25.967Z,10.20
2019-05-30T17:13:55.660Z,10.30
2019-05-30T17:16:26.288Z,10.30
2019-05-30T17:18:56.225Z,10.40
2019-05-30T17:21:26.792Z,10.40
2019-05-30T17:23:57.039Z,10.30
2019-05-30T17:26:27.443Z,10.30
2019-05-30T17:28:57.353Z,10.30
2019-05-30T17:31:28.493Z,10.30
2019-05-30T17:33:58.441Z,10.30
2019-05-30T17:36:28.479Z,10.30
2019-05-30T17:38:58.461Z,10.30
2019-05-30T17:41:28.995Z,10.30
2019-05-30T17:43:58.958Z,10.30
2019-05-30T17:46:30.053Z,10.30
2019-05-30T17:49:00.816Z,10.30
2019-05-30T17:51:30.576Z,10.20
2019-05-30T17:54:00.505Z,10.20
2019-05-30T17:56:30.478Z,10.30
2019-05-30T17:59:00.580Z,10.30
2019-05-30T18:01:30.867Z,10.30
2019-05-30T18:04:00.639Z,10.30
2019-05-30T18:06:30.824Z,10.30
2019-05-30T18:09:00.755Z,10.30
2019-05-30T18:11:43.000Z,10.30
2019-05-30T18:14:12.873Z,10.30
2019-05-30T18:16:42.624Z,10.30
2019-05-30T18:19:12.500Z,10.30
2019-05-30T18:21:42.292Z,10.30
2019-05-30T18:24:12.066Z,10.30
2019-05-30T18:26:41.784Z,10.20
2019-05-30T18:29:11.529Z,10.20
2019-05-30T18:31:41.299Z,10.20
2019-05-30T18:34:11.106Z,10.20
2019-05-30T18:36:40.768Z,10.20
2019-05-30T18:39:10.549Z,10.20
2019-05-30T18:41:40.656Z,10.20
2019-05-30T18:44:10.443Z,10.20
2019-05-30T18:46:40.223Z,10.10
2019-05-30T18:49:09.974Z,10.10
2019-05-30T18:51:39.767Z,10.10
2019-05-30T18:54:09.446Z,10.10
2019-05-30T18:56:39.227Z,10.10
2019-05-30T18:59:09.024Z,10.20
2019-05-30T19:01:38.841Z,10.20
2019-05-30T19:04:08.612Z,10.10
2019-05-30T19:06:38.392Z,10.10
2019-05-30T19:09:09.140Z,10.10
2019-05-30T19:11:39.060Z,10.10
2019-05-30T19:14:08.733Z,10.10
2019-05-30T19:16:38.537Z,10.10
2019-05-30T19:19:08.247Z,10.20
2019-05-30T19:21:38.011Z,10.20
2019-05-30T19:24:07.809Z,10.20
2019-05-30T19:26:37.756Z,10.30
2019-05-30T19:29:07.456Z,10.30
2019-05-30T19:31:38.624Z,10.30
2019-05-30T19:34:08.385Z,10.30
2019-05-30T19:36:38.228Z,10.30
2019-05-30T19:39:08.214Z,10.30
2019-05-30T19:41:53.806Z,10.30
2019-05-30T19:44:09.612Z,10.30
2019-05-30T19:46:39.405Z,10.30
2019-05-30T19:49:09.173Z,10.40
2019-05-30T19:51:39.208Z,10.40
2019-05-30T19:54:09.062Z,10.30
2019-05-30T19:56:41.880Z,10.40
2019-05-30T19:59:11.232Z,10.40
2019-05-30T20:01:41.106Z,10.40
2019-05-30T20:04:10.803Z,10.40
2019-05-30T20:06:40.897Z,10.40
2019-05-30T20:09:11.780Z,10.40
2019-05-30T20:11:41.691Z,10.40
2019-05-30T20:14:11.428Z,10.40
2019-05-30T20:16:42.036Z,10.40
2019-05-30T20:19:12.028Z,10.40
2019-05-30T20:21:42.108Z,10.40
2019-05-30T20:24:11.838Z,10.30
2019-05-30T20:26:42.561Z,10.30
2019-05-30T20:29:12.978Z,10.30
2019-05-30T20:31:43.626Z,10.30
2019-05-30T20:34:14.559Z,10.30
2019-05-30T20:36:45.337Z,10.30
2019-05-30T20:39:15.109Z,10.30
2019-05-30T20:41:44.877Z,10.30
2019-05-30T20:44:14.661Z,10.30
2019-05-30T20:46:44.409Z,10.30
2019-05-30T20:49:14.250Z,10.30
2019-05-30T20:51:43.942Z,10.20
2019-05-30T20:54:13.725Z,10.20
2019-05-30T20:56:43.808Z,10.20
2019-05-30T20:59:15.034Z,10.20
2019-05-30T21:01:45.942Z,10.20
2019-05-30T21:04:15.968Z,10.20
2019-05-30T21:06:47.186Z,10.20
2019-05-30T21:09:28.649Z,10.10
2019-05-30T21:11:51.012Z,10.10
2019-05-30T21:14:27.362Z,10.20
2019-05-30T21:16:56.473Z,10.10
2019-05-30T21:19:26.244Z,10.10
2019-05-30T21:21:56.022Z,10.10
2019-05-30T21:24:25.793Z,10.20
2019-05-30T21:26:55.513Z,10.20
2019-05-30T21:29:25.251Z,10.20
2019-05-30T21:31:55.000Z,10.10
2019-05-30T21:34:24.726Z,10.10
2019-05-30T21:36:54.732Z,10.10
2019-05-30T21:39:24.431Z,10.10
2019-05-30T21:41:55.073Z,10.20
2019-05-30T21:44:25.001Z,10.20
2019-05-30T21:46:54.677Z,10.20
2019-05-30T21:49:24.382Z,10.10
2019-05-30T21:51:54.333Z,10.10
2019-05-30T21:54:24.091Z,10.10
2019-05-30T21:56:53.800Z,10.10
2019-05-30T21:59:23.401Z,10.10
2019-05-30T22:01:57.173Z,10.10
2019-05-30T22:04:24.530Z,10.10
2019-05-30T22:06:54.230Z,10.10
2019-05-30T22:09:24.011Z,10.10
2019-05-30T22:11:53.784Z,10.20
2019-05-30T22:14:24.502Z,10.20
2019-05-30T22:16:54.585Z,10.20
2019-05-30T22:19:24.506Z,10.10
2019-05-30T22:21:54.232Z,10.20
2019-05-30T22:24:24.597Z,10.20
2019-05-30T22:26:54.379Z,10.20
2019-05-30T22:29:24.308Z,10.20
2019-05-30T22:31:54.088Z,10.20
2019-05-30T22:34:23.847Z,10.20
2019-05-30T22:36:53.627Z,10.20
2019-05-30T22:39:23.337Z,10.20
2019-05-30T22:41:53.049Z,10.20
2019-05-30T22:44:22.670Z,10.20
2019-05-30T22:46:52.404Z,10.20
2019-05-30T22:49:22.131Z,10.20
2019-05-30T22:51:53.103Z,10.20
2019-05-30T22:54:22.918Z,10.20
2019-05-30T22:56:53.579Z,10.10
2019-05-30T22:59:23.372Z,10.10
2019-05-30T23:01:53.661Z,10.10
2019-05-30T23:04:23.463Z,10.10
2019-05-30T23:06:54.435Z,10.10
2019-05-30T23:09:25.694Z,10.10
2019-05-30T23:11:55.979Z,10.10
2019-05-30T23:14:25.735Z,10.10
2019-05-30T23:16:56.387Z,10.10
2019-05-30T23:19:26.214Z,10.10
2019-05-30T23:21:57.211Z,10.20
2019-05-30T23:24:27.984Z,10.20
2019-05-30T23:26:57.929Z,10.20
2019-05-30T23:29:27.801Z,10.20
2019-05-30T23:31:58.326Z,10.20
2019-05-30T23:34:28.193Z,10.20
2019-05-30T23:36:58.799Z,10.20
2019-05-30T23:39:29.586Z,10.20
2019-05-30T23:41:59.442Z,10.20
2019-05-30T23:44:30.376Z,10.20
2019-05-30T23:47:00.181Z,10.20
2019-05-30T23:49:29.850Z,10.20
2019-05-30T23:52:00.310Z,10.20
2019-05-30T23:54:30.281Z,10.20
2019-05-30T23:57:00.830Z,10.20
2019-05-30T23:59:30.873Z,10.20
